6th June 2019 | Green Island, QLD, Australia

Quicksilver Reef Swim (2019)

1.5km: Female Adult

Pos Name Gun Time Overall Pos Gender (Pos)
1 Liz Stewart-Oliver (#2177) 00:18:58 2 Female  (1)
2 Kaname Woodfield (#2196) 00:21:08 17 Female  (10)
3 Mandella Parmenter (#2170) 00:21:33 20 Female  (12)
4 Julia Manton (#2234) 00:23:27 29 Female  (16)
5 Genna Verriest (#2189) 00:23:31 32 Female  (19)
6 Elle Hughes (#2139) 00:23:46 33 Female  (20)
7 Nicky Balderson (#2106) 00:24:05 34 Female  (21)
8 Amanda Hayes (#2132) 00:24:21 37 Female  (23)
9 Kaliki James (#2144) 00:24:25 41 Female  (27)
10 Courtney Thurgar (#2183) 00:24:27 42 Female  (28)
11 Louise Davey (#2115) 00:26:26 52 Female  (30)
12 Joanne Maher (#2301) 00:26:44 55 Female  (32)
13 Danyele Hamilton (#2130) 00:26:49 56 Female  (33)
14 Helen Morgan (#2165) 00:26:59 57 Female  (34)
15 Melanie Gill (#2127) 00:27:01 59 Female  (35)
16 Gabrielle KIELY (#2267) 00:27:08 60 Female  (36)
17 Colleen Harisson (#2131) 00:27:11 62 Female  (38)
18 Mari Turner (#2187) 00:27:21 66 Female  (40)
19 Barbara Sykes (#2179) 00:27:26 70 Female  (42)
20 Deahn Westland (#2194) 00:27:37 71 Female  (43)
21 Kathryn Beer (#2108) 00:28:23 77 Female  (46)
22 Louella Mays (#2161) 00:28:23 78 Female  (47)
23 Sharon HOGBEN (#2262) 00:28:25 79 Female  (48)
24 Alana Hutchison (#2141) 00:28:29 80 Female  (49)
25 Gabrielle Kurdyla (#2231) 00:28:37 82 Female  (50)
26 Emma Costin (#2114) 00:29:06 87 Female  (52)
27 Anita Mcconaghy (#2163) 00:30:32 93 Female  (53)
28 Gabriella Baker (#2105) 00:30:49 96 Female  (54)
29 Nami Matsuoka (#2160) 00:30:51 97 Female  (55)
30 Eleanor Doyle (#2120) 00:31:23 100 Female  (56)
31 Rosalind Kitching (#2149) 00:31:36 102 Female  (57)
32 Jaala Hides (#2135) 00:31:39 103 Female  (58)
33 Jennifer Gray (#2128) 00:31:41 104 Female  (59)
34 Nurit Horwitz (#2137) 00:32:14 106 Female  (60)
35 Ronelle Mcconaghy (#2162) 00:32:16 107 Female  (61)
36 Keiko Inoue (#2143) 00:32:18 108 Female  (62)
37 Jo Templeton (#2182) 00:33:14 109 Female  (63)
38 Annie Macdonough (#2155) 00:33:24 110 Female  (64)
39 Fiona Hewson (#2134) 00:34:18 113 Female  (65)
40 Brena Hunter (#2140) 00:34:31 114 Female  (66)
41 Wai Ng (#2167) 00:35:37 116 Female  (67)
42 Kath Fogarty (#2122) 00:36:10 117 Female  (68)
43 Theresa Kotwall (#2230) 00:36:55 118 Female  (69)
44 Louise Bernstein (#2109) 00:37:24 120 Female  (70)
45 Nannan Guo (#2129) 00:38:22 121 Female  (71)
46 Jenny Murphy (#2166) 00:38:30 123 Female  (72)
47 Sandra Rogers (#2175) 00:40:12 126 Female  (73)
48 Namie Koaisawa (#2151) 00:43:24 127 Female  (74)
49 Xu Wang (#2192) 00:46:07 128 Female  (75)
DNF Eve Boboch (#2110) DNF Female